PROFILE

 METAR AND TAF INFORMATION
ADDS - METARS form results

(0551 UTC 22 September 2019)
http://aviationweather.gov/metar/data/
 
FKYS 220500Z 00000KT 4000 BR FEW003 BKN006 20/20 Q1017 NOSIG
TAF FKYS 220500Z 2206/2306 26006KT 4000 BR FEW003 BKN006 BECMG 2006/2208 8000 NSW BKN013 BECMG 2208/2110 BKN016 FEW023CB TEMPO 2215/2224 TS PROB40 2218/2223 3000 TSRA BECMG 2220/2222 BKN006 FEW016CB 

 AIRPORT MAP

 RUNWAY INFORMATION
Runway 01 Runway length 11155 ft Runway width 148 ft
Runway elevation 2263 ft Runway displaced threshold 0 ft Runway heading 10
Runway 19 Runway length 11155 ft Runway width 148 ft
Runway elevation 2276 ft Runway displaced threshold 0 ft Runway heading 190

 AIRPORT FREQUENCIES
Type APP Name APP Frequency 121.3 MHZ
Type TWR Name TWR Frequency 119.1 MHZ

 AIRPORT NEAR NAVIGATION AIDS
Type VOR-DME Name Yaounde Nsimalen Frequency 115700 KHZ
Type NDB Name Yaounde Nsimalen Frequency 368 KHZ